createdAt,value
2017-06-30T00:00:23.330Z,994.34
2017-06-30T00:00:49.426Z,994.39
2017-06-30T00:01:15.560Z,994.34
2017-06-30T00:01:41.654Z,994.37
2017-06-30T00:02:07.770Z,994.36
2017-06-30T00:02:33.907Z,994.39
2017-06-30T00:03:00.004Z,994.38
2017-06-30T00:03:26.096Z,994.38
2017-06-30T00:03:52.202Z,994.39
2017-06-30T00:04:18.303Z,994.37
2017-06-30T00:04:44.424Z,994.39
2017-06-30T00:05:10.542Z,994.34
2017-06-30T00:05:36.633Z,994.32
2017-06-30T00:06:02.768Z,994.34
2017-06-30T00:06:28.894Z,994.37
2017-06-30T00:06:55.034Z,994.35
2017-06-30T00:07:21.139Z,994.34
2017-06-30T00:07:47.238Z,994.36
2017-06-30T00:08:13.352Z,994.35
2017-06-30T00:08:39.482Z,994.34
2017-06-30T00:09:05.614Z,994.34
2017-06-30T00:09:31.702Z,994.33
2017-06-30T00:09:57.854Z,994.35
2017-06-30T00:10:23.947Z,994.38
2017-06-30T00:10:50.054Z,994.34
2017-06-30T00:11:16.156Z,994.35
2017-06-30T00:11:42.246Z,994.39
2017-06-30T00:12:08.347Z,994.35
2017-06-30T00:12:34.452Z,994.4
2017-06-30T00:13:00.565Z,994.39
2017-06-30T00:13:26.688Z,994.35
2017-06-30T00:13:52.821Z,994.37
2017-06-30T00:14:18.936Z,994.38
2017-06-30T00:14:45.033Z,994.35
2017-06-30T00:15:11.141Z,994.35
2017-06-30T00:15:37.234Z,994.35
2017-06-30T00:16:03.339Z,994.37
2017-06-30T00:16:29.427Z,994.37
2017-06-30T00:16:55.528Z,994.4
2017-06-30T00:17:21.635Z,994.38
2017-06-30T00:17:47.778Z,994.38
2017-06-30T00:18:13.901Z,994.38
2017-06-30T00:18:40.006Z,994.41
2017-06-30T00:19:06.099Z,994.41
2017-06-30T00:19:32.191Z,994.43
2017-06-30T00:19:58.299Z,994.45
2017-06-30T00:20:24.448Z,994.47
2017-06-30T00:20:50.539Z,994.47
2017-06-30T00:21:16.674Z,994.47
2017-06-30T00:21:42.770Z,994.44
2017-06-30T00:22:08.874Z,994.47
2017-06-30T00:22:34.968Z,994.49
2017-06-30T00:23:01.107Z,994.45
2017-06-30T00:23:27.246Z,994.48
2017-06-30T00:23:53.399Z,994.51
2017-06-30T00:24:19.493Z,994.53
2017-06-30T00:24:45.597Z,994.5
2017-06-30T00:25:11.698Z,994.49
2017-06-30T00:25:37.812Z,994.48
2017-06-30T00:26:03.941Z,994.5
2017-06-30T00:26:30.047Z,994.54
2017-06-30T00:26:56.166Z,994.49
2017-06-30T00:27:22.288Z,994.56
2017-06-30T00:27:48.379Z,994.56
2017-06-30T00:28:14.508Z,994.56
2017-06-30T00:28:40.608Z,994.56
2017-06-30T00:29:06.698Z,994.55
2017-06-30T00:29:32.802Z,994.58
2017-06-30T00:29:58.906Z,994.6
2017-06-30T00:30:25.043Z,994.6
2017-06-30T00:30:51.141Z,994.61
2017-06-30T00:31:17.245Z,994.6
2017-06-30T00:31:43.336Z,994.62
2017-06-30T00:32:09.432Z,994.59
2017-06-30T00:32:35.578Z,994.55
2017-06-30T00:33:01.678Z,994.56
2017-06-30T00:33:27.785Z,994.6
2017-06-30T00:33:53.870Z,994.58
2017-06-30T00:34:19.970Z,994.57
2017-06-30T00:34:46.076Z,994.58
2017-06-30T00:35:12.216Z,994.58
2017-06-30T00:35:38.335Z,994.58
2017-06-30T00:36:04.470Z,994.56
2017-06-30T00:36:30.566Z,994.53
2017-06-30T00:36:56.656Z,994.59
2017-06-30T00:37:22.763Z,994.55
2017-06-30T00:37:48.861Z,994.59
2017-06-30T00:38:14.949Z,994.58
2017-06-30T00:38:41.056Z,994.59
2017-06-30T00:39:07.185Z,994.57
2017-06-30T00:39:33.274Z,994.59
2017-06-30T00:39:59.380Z,994.58
2017-06-30T00:40:25.483Z,994.56
2017-06-30T00:40:51.595Z,994.56
2017-06-30T00:41:17.693Z,994.55
2017-06-30T00:41:43.799Z,994.53
2017-06-30T00:42:09.890Z,994.57
2017-06-30T00:42:35.987Z,994.55
2017-06-30T00:43:02.094Z,994.59
2017-06-30T00:43:28.187Z,994.55
2017-06-30T00:43:54.294Z,994.57
2017-06-30T00:44:20.407Z,994.57
2017-06-30T00:44:46.507Z,994.6
2017-06-30T00:45:12.615Z,994.57
2017-06-30T00:45:38.705Z,994.56
2017-06-30T00:46:04.823Z,994.58
2017-06-30T00:46:30.933Z,994.57
2017-06-30T00:46:57.053Z,994.58
2017-06-30T00:47:23.167Z,994.56
2017-06-30T00:47:49.286Z,994.56
2017-06-30T00:48:15.407Z,994.55
2017-06-30T00:48:41.496Z,994.55
2017-06-30T00:49:07.600Z,994.59
2017-06-30T00:49:33.721Z,994.59
2017-06-30T00:49:59.853Z,994.55
2017-06-30T00:50:25.946Z,994.53
2017-06-30T00:50:52.061Z,994.54
2017-06-30T00:51:18.171Z,994.57
2017-06-30T00:51:44.265Z,994.58
2017-06-30T00:52:10.380Z,994.57
2017-06-30T00:52:36.484Z,994.58
2017-06-30T00:53:02.585Z,994.53
2017-06-30T00:53:28.679Z,994.58
2017-06-30T00:53:54.782Z,994.59
2017-06-30T00:54:20.940Z,994.55
2017-06-30T00:54:47.063Z,994.55
2017-06-30T00:55:13.187Z,994.57
2017-06-30T00:55:39.280Z,994.59
2017-06-30T00:56:05.409Z,994.53
2017-06-30T00:56:31.509Z,994.54
2017-06-30T00:56:57.598Z,994.57
2017-06-30T00:57:23.701Z,994.54
2017-06-30T00:57:49.832Z,994.57
2017-06-30T00:58:15.921Z,994.56
2017-06-30T00:58:42.019Z,994.59
2017-06-30T00:59:08.124Z,994.59
2017-06-30T00:59:34.294Z,994.57
2017-06-30T01:00:00.392Z,994.57
2017-06-30T01:00:26.486Z,994.56
2017-06-30T01:00:52.591Z,994.56
2017-06-30T01:01:18.693Z,994.58
2017-06-30T01:01:44.809Z,994.56
2017-06-30T01:02:10.931Z,994.6
2017-06-30T01:02:37.039Z,994.54
2017-06-30T01:03:03.153Z,994.6
2017-06-30T01:03:29.275Z,994.58
2017-06-30T01:03:55.379Z,994.6
2017-06-30T01:04:21.500Z,994.58
2017-06-30T01:04:47.668Z,994.6
2017-06-30T01:05:13.805Z,994.6
2017-06-30T01:05:39.900Z,994.63
2017-06-30T01:06:06.005Z,994.59
2017-06-30T01:06:32.093Z,994.62
2017-06-30T01:06:58.189Z,994.63
2017-06-30T01:07:24.324Z,994.6
2017-06-30T01:07:50.416Z,994.6
2017-06-30T01:08:16.507Z,994.66
2017-06-30T01:08:42.617Z,994.6
2017-06-30T01:09:08.714Z,994.62
2017-06-30T01:09:34.803Z,994.6
2017-06-30T01:10:00.908Z,994.59
2017-06-30T01:10:27.008Z,994.59
2017-06-30T01:10:53.099Z,994.59
2017-06-30T01:11:19.229Z,994.63
2017-06-30T01:11:45.320Z,994.62
2017-06-30T01:12:11.430Z,994.62
2017-06-30T01:12:37.553Z,994.55
2017-06-30T01:13:03.642Z,994.54
2017-06-30T01:13:29.797Z,994.55
2017-06-30T01:13:55.896Z,994.53
2017-06-30T01:14:22.013Z,994.54
2017-06-30T01:14:48.143Z,994.53
2017-06-30T01:15:14.247Z,994.53
2017-06-30T01:15:40.360Z,994.54
2017-06-30T01:16:06.487Z,994.53
2017-06-30T01:16:32.621Z,994.51
2017-06-30T01:16:58.737Z,994.53
2017-06-30T01:17:24.894Z,994.51
2017-06-30T01:17:51.007Z,994.51
2017-06-30T01:18:17.107Z,994.49
2017-06-30T01:18:43.213Z,994.48
2017-06-30T01:19:09.322Z,994.47
2017-06-30T01:19:35.471Z,994.46
2017-06-30T01:20:01.634Z,994.52
2017-06-30T01:20:27.748Z,994.5
2017-06-30T01:20:53.894Z,994.5
2017-06-30T01:21:20.057Z,994.54
2017-06-30T01:21:46.175Z,994.55
2017-06-30T01:22:12.266Z,994.57
2017-06-30T01:22:38.404Z,994.55
2017-06-30T01:23:04.528Z,994.54
2017-06-30T01:23:30.617Z,994.51
2017-06-30T01:23:56.775Z,994.55
2017-06-30T01:24:22.905Z,994.52
2017-06-30T01:24:48.991Z,994.53
2017-06-30T01:25:15.123Z,994.53
2017-06-30T01:25:41.230Z,994.51
2017-06-30T01:26:07.368Z,994.5
2017-06-30T01:26:33.468Z,994.53
2017-06-30T01:26:59.605Z,994.51
2017-06-30T01:27:25.745Z,994.52
2017-06-30T01:27:51.864Z,994.53
2017-06-30T01:28:17.960Z,994.56
2017-06-30T01:28:44.061Z,994.53
2017-06-30T01:29:10.168Z,994.52
2017-06-30T01:29:36.256Z,994.56
2017-06-30T01:30:02.407Z,994.53
2017-06-30T01:30:28.513Z,994.56
2017-06-30T01:30:54.603Z,994.56
2017-06-30T01:31:20.702Z,994.48
2017-06-30T01:31:46.809Z,994.57
2017-06-30T01:32:12.903Z,994.54
2017-06-30T01:32:39.042Z,994.58
2017-06-30T01:33:05.150Z,994.56
2017-06-30T01:33:31.245Z,994.54
2017-06-30T01:33:57.347Z,994.58
2017-06-30T01:34:23.462Z,994.55
2017-06-30T01:34:49.557Z,994.53
2017-06-30T01:35:15.688Z,994.57
2017-06-30T01:35:41.810Z,994.52
2017-06-30T01:36:07.921Z,994.58
2017-06-30T01:36:34.056Z,994.57
2017-06-30T01:37:00.155Z,994.59
2017-06-30T01:37:26.242Z,994.57
2017-06-30T01:37:52.380Z,994.59
2017-06-30T01:38:18.475Z,994.61
2017-06-30T01:38:44.564Z,994.58
2017-06-30T01:39:10.718Z,994.59
2017-06-30T01:39:36.808Z,994.6
2017-06-30T01:40:02.944Z,994.57
2017-06-30T01:40:29.070Z,994.6
2017-06-30T01:40:55.207Z,994.61
2017-06-30T01:41:21.365Z,994.62
2017-06-30T01:41:47.493Z,994.58
2017-06-30T01:42:13.581Z,994.6
2017-06-30T01:42:39.684Z,994.62
2017-06-30T01:43:05.791Z,994.59
2017-06-30T01:43:31.878Z,994.59
2017-06-30T01:43:57.979Z,994.59
2017-06-30T01:44:24.083Z,994.61
2017-06-30T01:44:50.174Z,994.56
2017-06-30T01:45:16.274Z,994.61
2017-06-30T01:45:42.388Z,994.57
2017-06-30T01:46:08.516Z,994.55
2017-06-30T01:46:34.621Z,994.59
2017-06-30T01:47:00.734Z,994.55
2017-06-30T01:47:26.835Z,994.57
2017-06-30T01:47:52.939Z,994.56
2017-06-30T01:48:19.029Z,994.57
2017-06-30T01:48:45.124Z,994.58
2017-06-30T01:49:11.254Z,994.58
2017-06-30T01:49:37.347Z,994.59
2017-06-30T01:50:03.461Z,994.61
2017-06-30T01:50:29.565Z,994.57
2017-06-30T01:50:55.711Z,994.62
2017-06-30T01:51:21.817Z,994.63
2017-06-30T01:51:47.933Z,994.65
2017-06-30T01:52:14.053Z,994.6
2017-06-30T01:52:40.185Z,994.61
2017-06-30T01:53:06.276Z,994.61
2017-06-30T01:53:32.415Z,994.64
2017-06-30T01:53:58.522Z,994.61
2017-06-30T01:54:24.644Z,994.63
2017-06-30T01:54:50.731Z,994.61
2017-06-30T01:55:16.837Z,994.6
2017-06-30T01:55:42.963Z,994.6
2017-06-30T01:56:09.061Z,994.59
2017-06-30T01:56:35.154Z,994.62
2017-06-30T01:57:01.241Z,994.59
2017-06-30T01:57:27.351Z,994.56
2017-06-30T01:57:53.474Z,994.59
2017-06-30T01:58:19.565Z,994.58
2017-06-30T01:58:45.701Z,994.56
2017-06-30T01:59:11.799Z,994.56
2017-06-30T01:59:37.940Z,994.57
2017-06-30T02:00:04.090Z,994.58
2017-06-30T02:00:30.199Z,994.57
2017-06-30T02:00:56.286Z,994.58
2017-06-30T02:01:22.384Z,994.59
2017-06-30T02:01:48.477Z,994.57
2017-06-30T02:02:14.583Z,994.6
2017-06-30T02:02:40.681Z,994.55
2017-06-30T02:03:06.800Z,994.59
2017-06-30T02:03:32.901Z,994.56
2017-06-30T02:03:59.009Z,994.58
2017-06-30T02:04:25.095Z,994.6
2017-06-30T02:04:51.268Z,994.58
2017-06-30T02:05:17.398Z,994.58
2017-06-30T02:05:43.490Z,994.59
2017-06-30T02:06:09.608Z,994.59
2017-06-30T02:06:35.947Z,994.6
2017-06-30T02:07:02.038Z,994.61
2017-06-30T02:07:28.178Z,994.65
2017-06-30T02:07:54.286Z,994.68
2017-06-30T02:08:20.382Z,994.68
2017-06-30T02:08:46.469Z,994.69
2017-06-30T02:09:12.628Z,994.71
2017-06-30T02:09:38.781Z,994.71
2017-06-30T02:10:04.870Z,994.7
2017-06-30T02:10:30.995Z,994.71
2017-06-30T02:10:57.098Z,994.74
2017-06-30T02:11:23.188Z,994.69
2017-06-30T02:11:49.289Z,994.73
2017-06-30T02:12:15.392Z,994.71
2017-06-30T02:12:41.481Z,994.71
2017-06-30T02:13:07.584Z,994.7
2017-06-30T02:13:33.700Z,994.67
2017-06-30T02:13:59.830Z,994.71
2017-06-30T02:14:25.935Z,994.68
2017-06-30T02:14:52.020Z,994.69
2017-06-30T02:15:18.148Z,994.71
2017-06-30T02:15:44.253Z,994.73
2017-06-30T02:16:10.394Z,994.72
2017-06-30T02:16:36.513Z,994.75
2017-06-30T02:17:02.647Z,994.72
2017-06-30T02:17:28.766Z,994.72
2017-06-30T02:17:54.904Z,994.71
2017-06-30T02:18:21.006Z,994.74
2017-06-30T02:18:47.128Z,994.68
2017-06-30T02:19:13.262Z,994.71
2017-06-30T02:19:39.350Z,994.7
2017-06-30T02:20:05.447Z,994.69
2017-06-30T02:20:31.552Z,994.72
2017-06-30T02:20:57.645Z,994.72
2017-06-30T02:21:23.758Z,994.71
2017-06-30T02:21:49.868Z,994.67
2017-06-30T02:22:16.047Z,994.71
2017-06-30T02:22:42.136Z,994.72
2017-06-30T02:23:08.239Z,994.74
2017-06-30T02:23:34.392Z,994.76
2017-06-30T02:24:00.590Z,994.78
2017-06-30T02:24:26.683Z,994.76
2017-06-30T02:24:52.772Z,994.8
2017-06-30T02:25:18.881Z,994.79
2017-06-30T02:25:44.974Z,994.79
2017-06-30T02:26:11.064Z,994.8
2017-06-30T02:26:37.173Z,994.81
2017-06-30T02:27:03.271Z,994.79
2017-06-30T02:27:29.361Z,994.79
2017-06-30T02:27:55.464Z,994.8
2017-06-30T02:28:21.572Z,994.83
2017-06-30T02:28:47.659Z,994.79
2017-06-30T02:29:13.783Z,994.82
2017-06-30T02:29:39.876Z,994.78
2017-06-30T02:30:06.006Z,994.79
2017-06-30T02:30:32.105Z,994.77
2017-06-30T02:30:58.194Z,994.77
2017-06-30T02:31:24.298Z,994.78
2017-06-30T02:31:50.403Z,994.75
2017-06-30T02:32:16.492Z,994.77
2017-06-30T02:32:42.613Z,994.76
2017-06-30T02:33:08.747Z,994.83
2017-06-30T02:33:34.837Z,994.8
2017-06-30T02:34:00.957Z,994.85
2017-06-30T02:34:27.118Z,994.87
2017-06-30T02:34:53.234Z,994.83
2017-06-30T02:35:19.391Z,994.81
2017-06-30T02:35:45.477Z,994.82
2017-06-30T02:36:11.602Z,994.83
2017-06-30T02:36:37.788Z,994.82
2017-06-30T02:37:03.878Z,994.82
2017-06-30T02:37:30.049Z,994.81
2017-06-30T02:37:56.178Z,994.82
2017-06-30T02:38:22.296Z,994.78
2017-06-30T02:38:48.410Z,994.8
2017-06-30T02:39:14.548Z,994.86
2017-06-30T02:39:40.647Z,994.84
2017-06-30T02:40:06.758Z,994.82
2017-06-30T02:40:32.888Z,994.82
2017-06-30T02:40:58.979Z,994.87
2017-06-30T02:41:25.110Z,994.83
2017-06-30T02:41:51.273Z,994.84
2017-06-30T02:42:17.344Z,994.89
2017-06-30T02:42:43.480Z,994.85
2017-06-30T02:43:09.628Z,994.87
2017-06-30T02:43:35.746Z,994.86
2017-06-30T02:44:01.850Z,994.87
2017-06-30T02:44:28.002Z,994.86
2017-06-30T02:44:54.116Z,994.9
2017-06-30T02:45:20.218Z,994.85
2017-06-30T02:45:46.381Z,994.87
2017-06-30T02:46:12.475Z,994.91
2017-06-30T02:46:38.569Z,994.88
2017-06-30T02:47:04.661Z,994.89
2017-06-30T02:47:30.790Z,994.87
2017-06-30T02:47:56.916Z,994.87
2017-06-30T02:48:23.031Z,994.87
2017-06-30T02:48:49.135Z,994.87
2017-06-30T02:49:15.324Z,994.85
2017-06-30T02:49:41.437Z,994.86
2017-06-30T02:50:07.535Z,994.89
2017-06-30T02:50:33.643Z,994.9
2017-06-30T02:50:59.732Z,994.87
2017-06-30T02:51:25.852Z,994.88
2017-06-30T02:51:51.986Z,994.89
2017-06-30T02:52:18.103Z,994.92
2017-06-30T02:52:44.192Z,994.9
2017-06-30T02:53:10.302Z,994.95
2017-06-30T02:53:36.399Z,994.91
2017-06-30T02:54:02.491Z,994.92
2017-06-30T02:54:28.598Z,994.92
2017-06-30T02:54:54.698Z,994.92
2017-06-30T02:55:20.811Z,994.94
2017-06-30T02:55:46.939Z,994.97
2017-06-30T02:56:13.072Z,994.96
2017-06-30T02:56:39.157Z,994.96
2017-06-30T02:57:05.307Z,994.96
2017-06-30T02:57:31.424Z,994.92
2017-06-30T02:57:57.529Z,994.96
2017-06-30T02:58:23.628Z,994.97
2017-06-30T02:58:49.718Z,994.99
2017-06-30T02:59:15.821Z,994.98
2017-06-30T02:59:41.956Z,994.98
2017-06-30T03:00:08.043Z,995
2017-06-30T03:00:34.141Z,995.01
2017-06-30T03:01:00.249Z,994.99
2017-06-30T03:01:26.391Z,995.01
2017-06-30T03:01:52.514Z,994.98
2017-06-30T03:02:18.641Z,995.02
2017-06-30T03:02:44.758Z,995.06
2017-06-30T03:03:10.889Z,995.05
2017-06-30T03:03:37.001Z,995.06
2017-06-30T03:04:03.124Z,995.02
2017-06-30T03:04:29.259Z,995.02
2017-06-30T03:04:55.347Z,995.1
2017-06-30T03:05:21.444Z,995.06
2017-06-30T03:05:47.579Z,995.05
2017-06-30T03:06:13.672Z,995.06
2017-06-30T03:06:39.788Z,995.04
2017-06-30T03:07:05.896Z,995.05
2017-06-30T03:07:31.990Z,995.12
2017-06-30T03:07:58.078Z,995.05
2017-06-30T03:08:24.184Z,995.09
2017-06-30T03:08:50.301Z,995.09
2017-06-30T03:09:16.407Z,995.12
2017-06-30T03:09:42.498Z,995.11
2017-06-30T03:10:08.591Z,995.11
2017-06-30T03:10:34.722Z,995.12
2017-06-30T03:11:00.818Z,995.11
2017-06-30T03:11:26.956Z,995.12
2017-06-30T03:11:53.065Z,995.12
2017-06-30T03:12:19.163Z,995.12
2017-06-30T03:12:45.254Z,995.06
2017-06-30T03:13:11.382Z,995.12
2017-06-30T03:13:37.516Z,995.09
2017-06-30T03:14:03.603Z,995.09
2017-06-30T03:14:29.731Z,995.08
2017-06-30T03:14:55.837Z,995.09
2017-06-30T03:15:21.925Z,995.06
2017-06-30T03:15:48.048Z,995.05
2017-06-30T03:16:14.153Z,995.06
2017-06-30T03:16:40.248Z,995.1
2017-06-30T03:17:06.338Z,995.09
2017-06-30T03:17:32.445Z,995.06
2017-06-30T03:17:58.541Z,995.13
2017-06-30T03:18:24.630Z,995.09
2017-06-30T03:18:50.761Z,995.12
2017-06-30T03:19:16.887Z,995.12
2017-06-30T03:19:42.986Z,995.13
2017-06-30T03:20:09.079Z,995.13
2017-06-30T03:20:35.168Z,995.11
2017-06-30T03:21:01.332Z,995.15
2017-06-30T03:21:27.456Z,995.15
2017-06-30T03:21:53.578Z,995.15
2017-06-30T03:22:19.680Z,995.16
2017-06-30T03:22:45.806Z,995.16
2017-06-30T03:23:11.898Z,995.15
2017-06-30T03:23:38.101Z,995.15
2017-06-30T03:24:04.207Z,995.17
2017-06-30T03:24:30.295Z,995.14
2017-06-30T03:24:56.417Z,995.11
2017-06-30T03:25:22.538Z,995.13
2017-06-30T03:25:48.639Z,995.13
2017-06-30T03:26:14.739Z,995.14
2017-06-30T03:26:40.827Z,995.17
2017-06-30T03:27:06.949Z,995.15
2017-06-30T03:27:33.055Z,995.15
2017-06-30T03:27:59.167Z,995.1
2017-06-30T03:28:25.269Z,995.11
2017-06-30T03:28:51.401Z,995.13
2017-06-30T03:29:17.494Z,995.15
2017-06-30T03:29:43.588Z,995.15
2017-06-30T03:30:09.722Z,995.13
2017-06-30T03:30:35.841Z,995.12
2017-06-30T03:31:02.001Z,995.13
2017-06-30T03:31:28.086Z,995.11
2017-06-30T03:31:54.235Z,995.13
2017-06-30T03:32:20.367Z,995.11
2017-06-30T03:32:46.454Z,995.12
2017-06-30T03:33:12.548Z,995.11
2017-06-30T03:33:38.680Z,995.08
2017-06-30T03:34:05.125Z,995.08
2017-06-30T03:34:31.215Z,995.07
2017-06-30T03:34:57.374Z,995.11
2017-06-30T03:35:23.470Z,995.11
2017-06-30T03:35:49.585Z,995.11
2017-06-30T03:36:15.691Z,995.14
2017-06-30T03:36:41.817Z,995.09
2017-06-30T03:37:07.929Z,995.1
2017-06-30T03:37:34.033Z,995.14
2017-06-30T03:38:00.141Z,995.13
2017-06-30T03:38:26.249Z,995.12
2017-06-30T03:38:52.350Z,995.13
2017-06-30T03:39:18.510Z,995.13
2017-06-30T03:39:44.628Z,995.17
2017-06-30T03:40:10.724Z,995.13
2017-06-30T03:40:36.856Z,995.15
2017-06-30T03:41:03.007Z,995.18
2017-06-30T03:41:29.122Z,995.14
2017-06-30T03:41:55.225Z,995.14
2017-06-30T03:42:21.322Z,995.17
2017-06-30T03:42:47.427Z,995.16
2017-06-30T03:43:13.518Z,995.17
2017-06-30T03:43:39.640Z,995.18
2017-06-30T03:44:05.744Z,995.18
2017-06-30T03:44:31.834Z,995.14
2017-06-30T03:44:57.923Z,995.14
2017-06-30T03:45:24.032Z,995.16
2017-06-30T03:45:50.129Z,995.18
2017-06-30T03:46:16.242Z,995.17
2017-06-30T03:46:42.384Z,995.18
2017-06-30T03:47:08.505Z,995.16
2017-06-30T03:47:34.604Z,995.2
2017-06-30T03:48:00.746Z,995.2
2017-06-30T03:48:26.838Z,995.21
2017-06-30T03:48:52.976Z,995.2
2017-06-30T03:49:19.099Z,995.25
2017-06-30T03:49:45.215Z,995.24
2017-06-30T03:50:11.318Z,995.17
2017-06-30T03:50:37.417Z,995.2
2017-06-30T03:51:03.505Z,995.23
2017-06-30T03:51:29.606Z,995.22
2017-06-30T03:51:55.716Z,995.22
2017-06-30T03:52:21.801Z,995.22
2017-06-30T03:52:47.898Z,995.22
2017-06-30T03:53:14.018Z,995.23
2017-06-30T03:53:40.121Z,995.18
2017-06-30T03:54:06.220Z,995.23
2017-06-30T03:54:32.313Z,995.24
2017-06-30T03:54:58.467Z,995.23
2017-06-30T03:55:24.624Z,995.25
2017-06-30T03:55:50.737Z,995.23
2017-06-30T03:56:16.862Z,995.24
2017-06-30T03:56:42.966Z,995.25
2017-06-30T03:57:09.056Z,995.25
2017-06-30T03:57:35.153Z,995.26
2017-06-30T03:58:01.258Z,995.27
2017-06-30T03:58:27.382Z,995.28
2017-06-30T03:58:53.487Z,995.28
2017-06-30T03:59:19.600Z,995.24
2017-06-30T03:59:45.699Z,995.22
2017-06-30T04:00:11.805Z,995.26
2017-06-30T04:00:37.894Z,995.24
2017-06-30T04:01:03.991Z,995.26
2017-06-30T04:01:30.128Z,995.25
2017-06-30T04:01:56.245Z,995.29
2017-06-30T04:02:22.336Z,995.24
2017-06-30T04:02:48.447Z,995.27
2017-06-30T04:03:14.570Z,995.28
2017-06-30T04:03:40.684Z,995.29
2017-06-30T04:04:06.789Z,995.27
2017-06-30T04:04:32.931Z,995.3
2017-06-30T04:04:59.062Z,995.32
2017-06-30T04:05:25.179Z,995.32
2017-06-30T04:05:51.297Z,995.3
2017-06-30T04:06:17.428Z,995.34
2017-06-30T04:06:43.525Z,995.29
2017-06-30T04:07:09.613Z,995.35
2017-06-30T04:07:35.722Z,995.32
2017-06-30T04:08:01.819Z,995.34
2017-06-30T04:08:27.910Z,995.32
2017-06-30T04:08:54.011Z,995.33
2017-06-30T04:09:20.119Z,995.36
2017-06-30T04:09:46.218Z,995.38
2017-06-30T04:10:12.363Z,995.35
2017-06-30T04:10:38.480Z,995.39
2017-06-30T04:11:04.615Z,995.39
2017-06-30T04:11:30.770Z,995.42
2017-06-30T04:11:56.882Z,995.39
2017-06-30T04:12:23.011Z,995.38
2017-06-30T04:12:49.116Z,995.36
2017-06-30T04:13:15.255Z,995.34
2017-06-30T04:13:41.354Z,995.39
2017-06-30T04:14:07.516Z,995.38
2017-06-30T04:14:33.631Z,995.37
2017-06-30T04:14:59.725Z,995.37
2017-06-30T04:15:25.823Z,995.35
2017-06-30T04:15:51.953Z,995.36
2017-06-30T04:16:18.060Z,995.37
2017-06-30T04:16:44.168Z,995.36
2017-06-30T04:17:10.268Z,995.38
2017-06-30T04:17:36.374Z,995.41
2017-06-30T04:18:02.492Z,995.41
2017-06-30T04:18:28.587Z,995.4
2017-06-30T04:18:54.691Z,995.4
2017-06-30T04:19:20.783Z,995.43
2017-06-30T04:19:46.875Z,995.4
2017-06-30T04:20:13.010Z,995.41
2017-06-30T04:20:39.162Z,995.43
2017-06-30T04:21:05.255Z,995.43
2017-06-30T04:21:31.360Z,995.43
2017-06-30T04:21:57.462Z,995.46
2017-06-30T04:22:23.551Z,995.46
2017-06-30T04:22:49.704Z,995.41
2017-06-30T04:23:15.863Z,995.48
2017-06-30T04:23:41.979Z,995.45
2017-06-30T04:24:08.079Z,995.44
2017-06-30T04:24:34.237Z,995.42
2017-06-30T04:25:00.326Z,995.43
2017-06-30T04:25:26.423Z,995.41
2017-06-30T04:25:52.558Z,995.43
2017-06-30T04:26:18.729Z,995.45
2017-06-30T04:26:44.864Z,995.45
2017-06-30T04:27:10.952Z,995.45
2017-06-30T04:27:37.053Z,995.43
2017-06-30T04:28:03.187Z,995.46
2017-06-30T04:28:29.277Z,995.45
2017-06-30T04:28:55.373Z,995.48
2017-06-30T04:29:21.478Z,995.44
2017-06-30T04:29:47.572Z,995.46
2017-06-30T04:30:13.684Z,995.47
2017-06-30T04:30:39.820Z,995.44
2017-06-30T04:31:05.916Z,995.44
2017-06-30T04:31:32.008Z,995.45
2017-06-30T04:31:58.138Z,995.45
2017-06-30T04:32:24.232Z,995.44
2017-06-30T04:32:50.339Z,995.41
2017-06-30T04:33:16.461Z,995.47
2017-06-30T04:33:42.575Z,995.45
2017-06-30T04:34:08.686Z,995.44
2017-06-30T04:34:34.782Z,995.45
2017-06-30T04:35:00.874Z,995.47
2017-06-30T04:35:27.004Z,995.47
2017-06-30T04:35:53.108Z,995.49
2017-06-30T04:36:19.197Z,995.49
2017-06-30T04:36:45.328Z,995.48
2017-06-30T04:37:11.490Z,995.49
2017-06-30T04:37:37.608Z,995.51
2017-06-30T04:38:03.757Z,995.49
2017-06-30T04:38:29.881Z,995.5
2017-06-30T04:38:55.953Z,995.53
2017-06-30T04:39:22.052Z,995.49
2017-06-30T04:39:48.165Z,995.53
2017-06-30T04:40:14.270Z,995.53
2017-06-30T04:40:40.404Z,995.49
2017-06-30T04:41:06.490Z,995.52
2017-06-30T04:41:32.589Z,995.55
2017-06-30T04:41:58.723Z,995.57
2017-06-30T04:42:24.812Z,995.57
2017-06-30T04:42:50.935Z,995.61
2017-06-30T04:43:17.030Z,995.61
2017-06-30T04:43:43.160Z,995.62
2017-06-30T04:44:09.263Z,995.6
2017-06-30T04:44:35.350Z,995.61
2017-06-30T04:45:01.447Z,995.58
2017-06-30T04:45:27.580Z,995.59
2017-06-30T04:45:53.670Z,995.58
2017-06-30T04:46:19.792Z,995.6
2017-06-30T04:46:45.897Z,995.57
2017-06-30T04:47:11.990Z,995.59
2017-06-30T04:47:38.102Z,995.61
2017-06-30T04:48:04.211Z,995.6
2017-06-30T04:48:30.305Z,995.61
2017-06-30T04:48:56.427Z,995.62
2017-06-30T04:49:22.542Z,995.66
2017-06-30T04:49:48.639Z,995.62
2017-06-30T04:50:14.799Z,995.63
2017-06-30T04:50:40.892Z,995.67
2017-06-30T04:51:07.007Z,995.69
2017-06-30T04:51:33.140Z,995.69
2017-06-30T04:51:59.263Z,995.7
2017-06-30T04:52:25.355Z,995.66
2017-06-30T04:52:51.459Z,995.68
2017-06-30T04:53:17.557Z,995.67
2017-06-30T04:53:43.674Z,995.66
2017-06-30T04:54:09.775Z,995.66
2017-06-30T04:54:35.864Z,995.67
2017-06-30T04:55:01.973Z,995.65
2017-06-30T04:55:28.070Z,995.72
2017-06-30T04:55:54.157Z,995.69
2017-06-30T04:56:20.286Z,995.7
2017-06-30T04:56:46.384Z,995.72
2017-06-30T04:57:12.476Z,995.72
2017-06-30T04:57:38.609Z,995.73
2017-06-30T04:58:04.714Z,995.69
2017-06-30T04:58:30.802Z,995.71
2017-06-30T04:58:56.929Z,995.72
2017-06-30T04:59:23.034Z,995.71
2017-06-30T04:59:49.126Z,995.71
2017-06-30T05:00:15.229Z,995.74
2017-06-30T05:00:41.342Z,995.73
2017-06-30T05:01:07.473Z,995.7
2017-06-30T05:01:33.605Z,995.74
2017-06-30T05:01:59.692Z,995.75
2017-06-30T05:02:25.794Z,995.77
2017-06-30T05:02:51.899Z,995.76
2017-06-30T05:03:17.989Z,995.78
2017-06-30T05:03:44.083Z,995.77
2017-06-30T05:04:10.189Z,995.79
2017-06-30T05:04:36.304Z,995.76
2017-06-30T05:05:02.394Z,995.78
2017-06-30T05:05:28.555Z,995.79
2017-06-30T05:05:54.651Z,995.74
2017-06-30T05:06:20.740Z,995.73
2017-06-30T05:06:46.872Z,995.74
2017-06-30T05:07:12.970Z,995.71
2017-06-30T05:07:39.087Z,995.75
2017-06-30T05:08:05.367Z,995.73
2017-06-30T05:08:31.473Z,995.73
2017-06-30T05:08:57.558Z,995.74
2017-06-30T05:09:23.704Z,995.72
2017-06-30T05:09:49.838Z,995.74
2017-06-30T05:10:15.928Z,995.76
2017-06-30T05:10:42.024Z,995.78
2017-06-30T05:11:08.122Z,995.74
2017-06-30T05:11:34.274Z,995.75
2017-06-30T05:12:00.407Z,995.75
2017-06-30T05:12:26.544Z,995.78
2017-06-30T05:12:52.668Z,995.8
2017-06-30T05:13:18.774Z,995.82
2017-06-30T05:13:44.864Z,995.82
2017-06-30T05:14:10.987Z,995.83
2017-06-30T05:14:37.122Z,995.83
2017-06-30T05:15:03.243Z,995.81
2017-06-30T05:15:29.335Z,995.82
2017-06-30T05:15:55.476Z,995.81
2017-06-30T05:16:21.568Z,995.84
2017-06-30T05:16:47.672Z,995.83
2017-06-30T05:17:13.783Z,995.84
2017-06-30T05:17:39.879Z,995.81
2017-06-30T05:18:05.990Z,995.83
2017-06-30T05:18:32.135Z,995.78
2017-06-30T05:18:58.225Z,995.84
2017-06-30T05:19:24.360Z,995.78
2017-06-30T05:19:50.483Z,995.81
2017-06-30T05:20:16.575Z,995.76
2017-06-30T05:20:42.707Z,995.8
2017-06-30T05:21:08.835Z,995.79
2017-06-30T05:21:34.927Z,995.78
2017-06-30T05:22:01.084Z,995.76
2017-06-30T05:22:27.172Z,995.78
2017-06-30T05:22:53.305Z,995.79
2017-06-30T05:23:19.401Z,995.78
2017-06-30T05:23:45.515Z,995.77
2017-06-30T05:24:11.646Z,995.83
2017-06-30T05:24:37.748Z,995.82
2017-06-30T05:25:03.860Z,995.82
2017-06-30T05:25:29.963Z,995.82
2017-06-30T05:25:56.122Z,995.87
2017-06-30T05:26:22.209Z,995.84
2017-06-30T05:26:48.335Z,995.82